Time;durP1;ratioP1;P1;durP2;ratioP2;P2;SDS_P1;SDS_P2;PMS_P1;PMS_P2;Temp;Humidity;BMP_temperature;BMP_pressure;BME280_temperature;BME280_humidity;BME280_pressure;Samples;Min_cycle;Max_cycle;Signal;HPM_P1;HPM_P2
2022/07/30 00:00:55;;;;;;;;;;;13.90;99.90;;;;;;5054600;28;20490;-59
2022/07/30 00:03:21;;;;;;;;;;;13.90;99.90;;;;;;5046529;28;19917;-59
2022/07/30 00:05:46;;;;;;;;;;;13.90;99.90;;;;;;5046500;28;19921;-61
2022/07/30 00:08:12;;;;;;;;;;;13.90;99.90;;;;;;5067112;28;20395;-61
2022/07/30 00:10:38;;;;;;;;;;;13.90;99.90;;;;;;5062062;28;19916;-60
2022/07/30 00:13:03;;;;;;;;;;;13.90;99.90;;;;;;5055748;28;20030;-59
2022/07/30 00:15:29;;;;;;;;;;;13.80;99.90;;;;;;5049889;28;19973;-60
2022/07/30 00:17:55;;;;;;;;;;;13.70;99.90;;;;;;5043044;28;19924;-59
2022/07/30 00:20:20;;;;;;;;;;;13.70;99.90;;;;;;5057629;28;19924;-60
2022/07/30 00:22:46;;;;;;;;;;;13.70;99.90;;;;;;5049338;28;19967;-59
2022/07/30 00:25:11;;;;;;;;;;;13.60;99.90;;;;;;5050154;28;19921;-61
2022/07/30 00:27:38;;;;;;;;;;;13.50;99.90;;;;;;5049238;28;19921;-61
2022/07/30 00:30:04;;;;;;;;;;;13.60;99.90;;;;;;5050134;28;19962;-59
2022/07/30 00:32:29;;;;;;;;;;;13.60;99.90;;;;;;5054332;28;20385;-61
2022/07/30 00:34:55;;;;;;;;;;;13.60;99.90;;;;;;5057312;28;19961;-59
2022/07/30 00:37:20;;;;;;;;;;;13.50;99.90;;;;;;5055741;28;20356;-60
2022/07/30 00:39:46;;;;;;;;;;;13.60;99.90;;;;;;5067897;28;19967;-59
2022/07/30 00:42:11;;;;;;;;;;;13.60;99.90;;;;;;5059694;28;19920;-59
2022/07/30 00:44:37;;;;;;;;;;;13.60;99.90;;;;;;5049644;28;20711;-59
2022/07/30 00:47:02;;;;;;;;;;;13.50;99.90;;;;;;5053064;28;19925;-59
2022/07/30 00:49:28;;;;;;;;;;;13.50;99.90;;;;;;5058554;28;20397;-59
2022/07/30 00:51:53;;;;;;;;;;;13.40;99.90;;;;;;5063550;28;19943;-60
2022/07/30 00:54:20;;;;;;;;;;;13.40;99.90;;;;;;5049612;28;19921;-60
2022/07/30 00:56:46;;;;;;;;;;;13.30;99.90;;;;;;5053357;28;20365;-61
2022/07/30 00:59:12;;;;;;;;;;;13.30;99.90;;;;;;5057300;28;20503;-60
2022/07/30 01:01:38;;;;;;;;;;;13.20;99.90;;;;;;5061032;28;20380;-60
2022/07/30 01:04:07;;;;;;;;;;;13.20;99.90;;;;;;5049971;28;19952;-60
2022/07/30 01:06:32;;;;;;;;;;;13.30;99.90;;;;;;5051387;28;20344;-60
2022/07/30 01:08:58;;;;;;;;;;;13.30;99.90;;;;;;5054573;28;19978;-60
2022/07/30 01:11:27;;;;;;;;;;;13.20;99.90;;;;;;5064537;28;19921;-60
2022/07/30 01:13:52;;;;;;;;;;;13.30;99.90;;;;;;5053163;28;19959;-59
2022/07/30 01:16:18;;;;;;;;;;;13.30;99.90;;;;;;5065014;28;19959;-60
2022/07/30 01:21:35;;;;;;;;;;;13.10;99.90;;;;;;5055609;28;20003;-60
2022/07/30 01:24:08;;;;;;;;;;;13.10;99.90;;;;;;5052212;28;19920;-59
2022/07/30 01:26:33;;;;;;;;;;;13.00;99.90;;;;;;5049737;28;19932;-59
2022/07/30 01:28:59;;;;;;;;;;;13.00;99.90;;;;;;5057690;28;20425;-59
2022/07/30 01:31:25;;;;;;;;;;;13.00;99.90;;;;;;5061984;28;19916;-60
2022/07/30 01:33:51;;;;;;;;;;;13.00;99.90;;;;;;5051876;28;19925;-60
2022/07/30 01:36:19;;;;;;;;;;;13.00;99.90;;;;;;5054323;28;20355;-60
2022/07/30 01:38:45;;;;;;;;;;;13.00;99.90;;;;;;5058334;28;19925;-59
2022/07/30 01:41:11;;;;;;;;;;;13.00;99.90;;;;;;5051274;28;20393;-59
2022/07/30 01:43:37;;;;;;;;;;;13.00;99.90;;;;;;5066657;28;19916;-60
2022/07/30 01:46:03;;;;;;;;;;;12.90;99.90;;;;;;5057298;28;19930;-59
2022/07/30 01:48:29;;;;;;;;;;;12.90;99.90;;;;;;5049420;28;20390;-59
2022/07/30 01:50:56;;;;;;;;;;;12.90;99.90;;;;;;5055495;28;19921;-60
2022/07/30 01:53:26;;;;;;;;;;;12.90;99.90;;;;;;5056097;28;19942;-60
2022/07/30 01:55:53;;;;;;;;;;;12.90;99.90;;;;;;5052369;28;19916;-59
2022/07/30 01:58:19;;;;;;;;;;;12.90;99.90;;;;;;5066372;28;20300;-60
2022/07/30 02:00:47;;;;;;;;;;;12.90;99.90;;;;;;5054144;28;19916;-59
2022/07/30 02:03:13;;;;;;;;;;;12.90;99.90;;;;;;5052616;28;19920;-60
2022/07/30 02:05:40;;;;;;;;;;;12.90;99.90;;;;;;5055457;28;19938;-59
2022/07/30 02:08:25;;;;;;;;;;;12.90;99.90;;;;;;5063312;28;19981;-60
2022/07/30 02:10:52;;;;;;;;;;;12.80;99.90;;;;;;5035510;28;19959;-58
2022/07/30 02:13:22;;;;;;;;;;;12.80;99.90;;;;;;5060127;28;19917;-59
2022/07/30 02:15:55;;;;;;;;;;;12.80;99.90;;;;;;5050686;28;19925;-59
2022/07/30 02:18:31;;;;;;;;;;;12.80;99.90;;;;;;5052644;28;19917;-59
2022/07/30 02:21:01;;;;;;;;;;;12.80;99.90;;;;;;5049219;28;20039;-60
2022/07/30 02:23:27;;;;;;;;;;;12.80;99.90;;;;;;5056121;28;19916;-59
2022/07/30 02:25:53;;;;;;;;;;;12.70;99.90;;;;;;5059509;28;19925;-60
2022/07/30 02:28:20;;;;;;;;;;;12.70;99.90;;;;;;5050901;28;19938;-60
2022/07/30 02:30:50;;;;;;;;;;;12.70;99.90;;;;;;5053018;28;19917;-60
2022/07/30 02:33:16;;;;;;;;;;;12.80;99.90;;;;;;5048404;28;20253;-60
2022/07/30 02:35:41;;;;;;;;;;;12.80;99.90;;;;;;5054943;28;20055;-61
2022/07/30 02:38:08;;;;;;;;;;;12.70;99.90;;;;;;5068916;28;19999;-60
2022/07/30 02:40:34;;;;;;;;;;;12.70;99.90;;;;;;5060296;28;20281;-59
2022/07/30 02:43:00;;;;;;;;;;;12.60;99.90;;;;;;5052766;28;19933;-60
2022/07/30 02:45:26;;;;;;;;;;;12.60;99.90;;;;;;5066405;28;19939;-59
2022/07/30 02:47:57;;;;;;;;;;;12.60;99.90;;;;;;5054515;28;19975;-59
2022/07/30 02:50:23;;;;;;;;;;;12.50;99.90;;;;;;5055819;28;19921;-60
2022/07/30 02:52:50;;;;;;;;;;;12.60;99.90;;;;;;5062602;28;20446;-59
2022/07/30 02:55:16;;;;;;;;;;;12.50;99.90;;;;;;5053154;28;20237;-59
2022/07/30 02:57:43;;;;;;;;;;;12.60;99.90;;;;;;5051128;28;20676;-60
2022/07/30 03:00:09;;;;;;;;;;;12.60;99.90;;;;;;5051073;28;19924;-60
2022/07/30 03:02:35;;;;;;;;;;;12.50;99.90;;;;;;5048628;28;19917;-60
2022/07/30 03:05:03;;;;;;;;;;;12.50;99.90;;;;;;5049486;28;19969;-60
2022/07/30 03:07:29;;;;;;;;;;;12.50;99.90;;;;;;5055099;28;20368;-59
2022/07/30 03:09:54;;;;;;;;;;;12.50;99.90;;;;;;5054327;28;19925;-59
2022/07/30 03:12:21;;;;;;;;;;;12.50;99.90;;;;;;5057273;28;19923;-60
2022/07/30 03:14:46;;;;;;;;;;;12.40;99.90;;;;;;5057192;28;19917;-59
2022/07/30 03:17:13;;;;;;;;;;;12.40;99.90;;;;;;5052818;28;19927;-60
2022/07/30 03:19:40;;;;;;;;;;;12.30;99.90;;;;;;5049097;28;19928;-59
2022/07/30 03:22:06;;;;;;;;;;;12.20;99.90;;;;;;5047865;28;19925;-59
2022/07/30 03:24:32;;;;;;;;;;;12.20;99.90;;;;;;5059592;28;20308;-60
2022/07/30 03:26:59;;;;;;;;;;;12.10;99.90;;;;;;5053658;28;19963;-60
2022/07/30 03:29:25;;;;;;;;;;;12.20;99.90;;;;;;5048018;28;19924;-60
2022/07/30 03:31:52;;;;;;;;;;;12.30;99.90;;;;;;5051443;28;19923;-59
2022/07/30 03:34:19;;;;;;;;;;;12.30;99.90;;;;;;5053677;28;19917;-61
2022/07/30 03:36:44;;;;;;;;;;;12.30;99.90;;;;;;5055978;28;20332;-61
2022/07/30 03:39:10;;;;;;;;;;;12.40;99.90;;;;;;5058178;28;19986;-59
2022/07/30 03:41:36;;;;;;;;;;;12.40;99.90;;;;;;5050471;28;19920;-60
2022/07/30 03:44:02;;;;;;;;;;;12.30;99.90;;;;;;5050725;28;19969;-59
2022/07/30 03:46:28;;;;;;;;;;;12.40;99.90;;;;;;5064930;28;19927;-59
2022/07/30 03:48:54;;;;;;;;;;;12.40;99.90;;;;;;5048986;28;19925;-59
2022/07/30 03:51:19;;;;;;;;;;;12.50;99.90;;;;;;5047354;28;20062;-61
2022/07/30 03:53:45;;;;;;;;;;;12.40;99.90;;;;;;5047533;28;19917;-60
2022/07/30 03:56:12;;;;;;;;;;;12.40;99.90;;;;;;5048604;28;20347;-60
2022/07/30 03:58:38;;;;;;;;;;;12.40;99.90;;;;;;5049383;28;19955;-60
2022/07/30 04:01:04;;;;;;;;;;;12.30;99.90;;;;;;5057348;28;20371;-60
2022/07/30 04:03:30;;;;;;;;;;;12.30;99.90;;;;;;5059267;28;19921;-59
2022/07/30 04:05:56;;;;;;;;;;;12.30;99.90;;;;;;5051787;28;20022;-60
2022/07/30 04:08:22;;;;;;;;;;;12.30;99.90;;;;;;5052535;28;19916;-61
2022/07/30 04:10:48;;;;;;;;;;;12.30;99.90;;;;;;5053708;28;19921;-60
2022/07/30 04:13:13;;;;;;;;;;;12.30;99.90;;;;;;5053345;28;19917;-61
2022/07/30 04:15:48;;;;;;;;;;;12.20;99.90;;;;;;5058255;28;19927;-59
2022/07/30 04:18:14;;;;;;;;;;;12.30;99.90;;;;;;5050406;28;19917;-60
2022/07/30 04:20:40;;;;;;;;;;;12.40;99.90;;;;;;5032216;28;20324;-60
2022/07/30 04:23:06;;;;;;;;;;;12.30;99.90;;;;;;5052725;28;19921;-59
2022/07/30 04:25:32;;;;;;;;;;;12.40;99.90;;;;;;5060165;28;19951;-61
2022/07/30 04:27:58;;;;;;;;;;;12.40;99.90;;;;;;5062185;28;20015;-60
2022/07/30 04:30:23;;;;;;;;;;;12.40;99.90;;;;;;5053044;28;20007;-60
2022/07/30 04:32:49;;;;;;;;;;;12.50;99.90;;;;;;5065333;28;19931;-59
2022/07/30 04:35:14;;;;;;;;;;;12.50;99.90;;;;;;5056079;28;20375;-60
2022/07/30 04:37:40;;;;;;;;;;;12.60;99.90;;;;;;5058941;28;19978;-60
2022/07/30 04:40:06;;;;;;;;;;;12.60;99.90;;;;;;5051546;28;20379;-59
2022/07/30 04:42:31;;;;;;;;;;;12.60;99.90;;;;;;5052559;28;19999;-61
2022/07/30 04:44:57;;;;;;;;;;;12.70;99.90;;;;;;5057374;28;19916;-60
2022/07/30 04:47:23;;;;;;;;;;;12.80;99.90;;;;;;5050132;28;20396;-60
2022/07/30 04:49:49;;;;;;;;;;;12.80;99.90;;;;;;5059256;28;19920;-61
2022/07/30 04:52:15;;;;;;;;;;;12.90;99.90;;;;;;5046137;28;19923;-61
2022/07/30 04:54:43;;;;;;;;;;;13.00;99.90;;;;;;5051047;28;19920;-60
2022/07/30 04:57:12;;;;;;;;;;;13.10;99.90;;;;;;5053258;28;19939;-59
2022/07/30 04:59:38;;;;;;;;;;;13.20;99.90;;;;;;5049666;28;19921;-61
2022/07/30 05:02:05;;;;;;;;;;;13.20;99.90;;;;;;5050931;28;19943;-60
2022/07/30 05:04:31;;;;;;;;;;;13.30;99.90;;;;;;5049813;28;20341;-60
2022/07/30 05:06:57;;;;;;;;;;;13.40;99.90;;;;;;5057454;28;19971;-59
2022/07/30 05:09:23;;;;;;;;;;;13.50;99.90;;;;;;5058764;28;19982;-60
2022/07/30 05:11:50;;;;;;;;;;;13.60;99.90;;;;;;5056570;28;20049;-59
2022/07/30 05:14:15;;;;;;;;;;;13.70;99.90;;;;;;5050507;28;19920;-60
2022/07/30 05:16:41;;;;;;;;;;;13.80;99.90;;;;;;5053587;28;19927;-61
2022/07/30 05:19:06;;;;;;;;;;;13.90;99.90;;;;;;5049628;28;20002;-61
2022/07/30 05:21:32;;;;;;;;;;;14.10;99.90;;;;;;5053045;28;20308;-60
2022/07/30 05:23:57;;;;;;;;;;;14.30;99.90;;;;;;5051200;28;19924;-60
2022/07/30 05:26:23;;;;;;;;;;;14.40;99.90;;;;;;5055274;28;20798;-60
2022/07/30 05:28:48;;;;;;;;;;;14.60;99.90;;;;;;5057484;28;20013;-61
2022/07/30 05:31:14;;;;;;;;;;;14.80;99.90;;;;;;5058100;28;19921;-61
2022/07/30 05:33:39;;;;;;;;;;;14.90;99.90;;;;;;5050958;28;19958;-61
2022/07/30 05:36:05;;;;;;;;;;;15.10;99.90;;;;;;5049963;28;20042;-61
2022/07/30 05:38:30;;;;;;;;;;;15.20;99.90;;;;;;5056322;28;19916;-61
2022/07/30 05:40:56;;;;;;;;;;;15.40;99.90;;;;;;5057471;28;22346;-61
2022/07/30 05:43:21;;;;;;;;;;;15.50;99.90;;;;;;5051459;28;19924;-60
2022/07/30 05:45:46;;;;;;;;;;;15.60;99.90;;;;;;5047692;28;20008;-61
2022/07/30 05:48:12;;;;;;;;;;;15.70;99.90;;;;;;5049252;28;19928;-61
2022/07/30 05:50:37;;;;;;;;;;;15.80;99.90;;;;;;5045568;28;19917;-62
2022/07/30 05:53:03;;;;;;;;;;;16.00;99.90;;;;;;5049475;28;19959;-61
2022/07/30 05:55:28;;;;;;;;;;;16.10;99.90;;;;;;5051852;28;19921;-61
2022/07/30 05:57:54;;;;;;;;;;;16.20;99.90;;;;;;5059638;28;19928;-61
2022/07/30 06:00:19;;;;;;;;;;;16.40;99.90;;;;;;5053083;28;19971;-60
2022/07/30 06:02:45;;;;;;;;;;;16.50;99.90;;;;;;5052191;28;19925;-62
2022/07/30 06:05:11;;;;;;;;;;;16.60;99.90;;;;;;5060085;28;19920;-61
2022/07/30 06:07:36;;;;;;;;;;;16.80;99.90;;;;;;5052870;28;19917;-60
2022/07/30 06:10:02;;;;;;;;;;;17.00;99.90;;;;;;5058946;28;19920;-60
2022/07/30 06:12:28;;;;;;;;;;;17.10;99.90;;;;;;5055521;28;20364;-62
2022/07/30 06:14:54;;;;;;;;;;;17.30;99.90;;;;;;5053444;28;19931;-61
2022/07/30 06:17:19;;;;;;;;;;;17.50;99.90;;;;;;5057919;28;19935;-62
2022/07/30 06:19:45;;;;;;;;;;;17.70;99.90;;;;;;5044791;28;19978;-61
2022/07/30 06:22:10;;;;;;;;;;;17.90;99.90;;;;;;5056409;28;19942;-62
2022/07/30 06:24:36;;;;;;;;;;;18.10;99.90;;;;;;5062833;28;20257;-62
2022/07/30 06:27:02;;;;;;;;;;;18.20;99.90;;;;;;5054026;28;19921;-63
2022/07/30 06:29:27;;;;;;;;;;;18.40;99.90;;;;;;5046832;28;19995;-61
2022/07/30 06:31:53;;;;;;;;;;;18.60;99.90;;;;;;5059626;28;19921;-61
2022/07/30 06:34:18;;;;;;;;;;;18.60;99.90;;;;;;5048465;28;19921;-62
2022/07/30 06:36:44;;;;;;;;;;;18.70;99.90;;;;;;5058514;28;22398;-61
2022/07/30 06:39:09;;;;;;;;;;;18.80;99.30;;;;;;5060055;28;19948;-62
2022/07/30 06:41:35;;;;;;;;;;;19.00;99.90;;;;;;5068798;28;19916;-61
2022/07/30 06:44:00;;;;;;;;;;;19.20;99.90;;;;;;5056779;28;19940;-62
2022/07/30 06:46:26;;;;;;;;;;;19.40;99.50;;;;;;5059073;28;19920;-61
2022/07/30 06:48:51;;;;;;;;;;;19.60;99.30;;;;;;5050110;28;19925;-61
2022/07/30 06:51:16;;;;;;;;;;;19.70;98.50;;;;;;5051869;28;19956;-61
2022/07/30 06:53:44;;;;;;;;;;;19.90;98.10;;;;;;5060151;28;19925;-61
2022/07/30 06:56:10;;;;;;;;;;;20.10;97.00;;;;;;5067430;28;20039;-62
2022/07/30 06:58:35;;;;;;;;;;;20.20;96.50;;;;;;5057115;28;19921;-61
2022/07/30 07:01:01;;;;;;;;;;;20.50;96.20;;;;;;5061138;28;20408;-61
2022/07/30 07:03:26;;;;;;;;;;;20.50;95.40;;;;;;5057799;28;19920;-62
2022/07/30 07:05:52;;;;;;;;;;;20.70;95.30;;;;;;5053943;28;19967;-62
2022/07/30 07:08:18;;;;;;;;;;;20.90;95.40;;;;;;5058417;28;19923;-61
2022/07/30 07:10:43;;;;;;;;;;;21.10;94.30;;;;;;5067595;28;19999;-61
2022/07/30 07:13:09;;;;;;;;;;;21.20;94.30;;;;;;5059715;28;19923;-61
2022/07/30 07:15:35;;;;;;;;;;;21.50;93.70;;;;;;5051568;28;19920;-62
2022/07/30 07:18:00;;;;;;;;;;;21.50;92.00;;;;;;5052261;28;19960;-61
2022/07/30 07:20:25;;;;;;;;;;;21.60;93.20;;;;;;5057778;28;19916;-61
2022/07/30 07:22:51;;;;;;;;;;;21.50;91.60;;;;;;5057355;28;21284;-61
2022/07/30 07:25:17;;;;;;;;;;;21.80;92.70;;;;;;5052331;28;19917;-61
2022/07/30 07:27:42;;;;;;;;;;;21.90;91.20;;;;;;5065089;28;20311;-62
2022/07/30 07:30:08;;;;;;;;;;;21.90;91.90;;;;;;5061226;28;19916;-61
2022/07/30 07:32:34;;;;;;;;;;;22.20;93.00;;;;;;5053941;28;20011;-63
2022/07/30 07:34:59;;;;;;;;;;;22.40;92.10;;;;;;5049492;28;19999;-62
2022/07/30 07:37:25;;;;;;;;;;;22.60;92.30;;;;;;5059055;28;19923;-61
2022/07/30 07:39:50;;;;;;;;;;;22.80;92.10;;;;;;5049821;28;20479;-61
2022/07/30 07:42:15;;;;;;;;;;;23.10;92.30;;;;;;5059015;28;19946;-62
2022/07/30 07:44:41;;;;;;;;;;;23.30;91.80;;;;;;5056639;28;19924;-62
2022/07/30 07:47:06;;;;;;;;;;;23.60;91.50;;;;;;5049932;28;20027;-62
2022/07/30 07:49:32;;;;;;;;;;;23.70;91.50;;;;;;5057650;28;19951;-62
2022/07/30 07:51:57;;;;;;;;;;;23.90;90.90;;;;;;5067074;28;19920;-63
2022/07/30 07:54:23;;;;;;;;;;;23.90;90.40;;;;;;5062014;28;19931;-62
2022/07/30 07:56:50;;;;;;;;;;;24.10;90.30;;;;;;5055236;28;19967;-62
2022/07/30 07:59:16;;;;;;;;;;;24.30;89.60;;;;;;5053331;28;19971;-62
2022/07/30 08:01:41;;;;;;;;;;;24.50;88.30;;;;;;5064893;28;19956;-62
2022/07/30 08:04:07;;;;;;;;;;;24.50;88.60;;;;;;5062762;28;19916;-62
2022/07/30 08:06:32;;;;;;;;;;;24.50;85.10;;;;;;5050732;28;19987;-62
2022/07/30 08:09:00;;;;;;;;;;;24.80;85.70;;;;;;5057118;28;19920;-62
2022/07/30 08:11:25;;;;;;;;;;;25.10;86.80;;;;;;5061319;28;19964;-62
2022/07/30 08:13:51;;;;;;;;;;;25.20;80.40;;;;;;5052526;28;19974;-62
2022/07/30 08:16:17;;;;;;;;;;;25.30;83.40;;;;;;5051593;28;19916;-64
2022/07/30 08:18:42;;;;;;;;;;;25.60;80.10;;;;;;5059939;28;20007;-62
2022/07/30 08:21:08;;;;;;;;;;;25.70;82.20;;;;;;5053017;28;19924;-63
2022/07/30 08:23:33;;;;;;;;;;;25.90;79.90;;;;;;5064675;28;19923;-62
2022/07/30 08:25:59;;;;;;;;;;;25.80;76.00;;;;;;5071366;28;19920;-63
2022/07/30 08:28:25;;;;;;;;;;;25.60;76.40;;;;;;5068256;28;19916;-61
2022/07/30 08:30:50;;;;;;;;;;;25.50;74.50;;;;;;5068714;28;19920;-62
2022/07/30 08:33:16;;;;;;;;;;;25.70;75.00;;;;;;5061330;28;19924;-62
2022/07/30 08:35:41;;;;;;;;;;;25.70;72.60;;;;;;5050252;28;19923;-62
2022/07/30 08:38:07;;;;;;;;;;;26.00;74.50;;;;;;5064119;28;19921;-62
2022/07/30 08:40:33;;;;;;;;;;;26.20;75.00;;;;;;5050850;28;20384;-62
2022/07/30 08:43:02;;;;;;;;;;;26.40;75.20;;;;;;5054137;28;19916;-62
2022/07/30 08:45:29;;;;;;;;;;;26.30;71.60;;;;;;5065818;28;19916;-63
2022/07/30 08:47:56;;;;;;;;;;;26.60;69.60;;;;;;5049421;28;19920;-62
2022/07/30 08:50:21;;;;;;;;;;;26.70;67.70;;;;;;5050012;28;19924;-62
2022/07/30 08:52:48;;;;;;;;;;;26.50;66.20;;;;;;5053352;28;19917;-63
2022/07/30 08:55:14;;;;;;;;;;;27.10;68.50;;;;;;5065538;28;19943;-61
2022/07/30 08:57:40;;;;;;;;;;;27.30;67.40;;;;;;5056372;28;19920;-61
2022/07/30 09:00:06;;;;;;;;;;;27.40;65.60;;;;;;5073955;28;19916;-62
2022/07/30 09:02:31;;;;;;;;;;;27.80;62.90;;;;;;5064726;28;20360;-62
2022/07/30 09:04:57;;;;;;;;;;;28.00;62.20;;;;;;5065906;28;19917;-63
2022/07/30 09:07:23;;;;;;;;;;;28.00;60.10;;;;;;5058316;28;19955;-63
2022/07/30 09:09:48;;;;;;;;;;;28.10;62.40;;;;;;5053072;28;20426;-64
2022/07/30 09:12:32;;;;;;;;;;;28.60;62.40;;;;;;5073166;28;20004;-63
2022/07/30 09:15:06;;;;;;;;;;;28.70;59.60;;;;;;5074952;28;20003;-63
2022/07/30 09:17:44;;;;;;;;;;;29.40;59.30;;;;;;5055148;28;19924;-62
2022/07/30 09:20:10;;;;;;;;;;;29.50;55.60;;;;;;5052447;28;20268;-63
2022/07/30 09:22:43;;;;;;;;;;;29.50;55.80;;;;;;5059102;28;19916;-62
2022/07/30 09:25:08;;;;;;;;;;;29.70;56.90;;;;;;5069102;28;19916;-63
2022/07/30 09:27:42;;;;;;;;;;;30.00;54.80;;;;;;5060048;28;19923;-63
2022/07/30 09:30:08;;;;;;;;;;;29.90;55.30;;;;;;5062633;28;19924;-62
2022/07/30 09:32:53;;;;;;;;;;;30.50;54.20;;;;;;5071693;28;19916;-63
2022/07/30 09:35:19;;;;;;;;;;;30.20;50.80;;;;;;5059871;28;19923;-62
2022/07/30 09:37:45;;;;;;;;;;;29.80;53.20;;;;;;5052911;28;19924;-62
2022/07/30 09:40:15;;;;;;;;;;;30.00;51.60;;;;;;5064001;28;19917;-62
2022/07/30 09:42:40;;;;;;;;;;;30.70;51.10;;;;;;5053773;28;19923;-63
2022/07/30 09:45:07;;;;;;;;;;;30.70;47.00;;;;;;5053435;28;20003;-63
2022/07/30 09:47:33;;;;;;;;;;;30.90;50.20;;;;;;5070560;28;19924;-64
2022/07/30 09:50:06;;;;;;;;;;;30.60;49.80;;;;;;5050684;28;19916;-63
2022/07/30 09:52:32;;;;;;;;;;;30.70;50.60;;;;;;5051516;28;19922;-64
2022/07/30 09:54:58;;;;;;;;;;;30.80;49.30;;;;;;5052962;28;20007;-63
2022/07/30 09:57:23;;;;;;;;;;;30.30;51.20;;;;;;5063419;28;19991;-64
2022/07/30 09:59:49;;;;;;;;;;;30.10;52.20;;;;;;5069657;28;19917;-62
2022/07/30 10:02:14;;;;;;;;;;;29.30;52.40;;;;;;5072074;28;20314;-63
2022/07/30 10:04:40;;;;;;;;;;;29.10;52.60;;;;;;5054988;28;19920;-62
2022/07/30 10:07:15;;;;;;;;;;;29.20;52.10;;;;;;5059570;28;19964;-62
2022/07/30 10:09:44;;;;;;;;;;;29.60;52.20;;;;;;5053162;28;19917;-62
2022/07/30 10:12:12;;;;;;;;;;;30.30;52.30;;;;;;5052361;28;19917;-62
2022/07/30 10:14:39;;;;;;;;;;;31.20;49.90;;;;;;5053595;28;19962;-62
2022/07/30 10:17:05;;;;;;;;;;;32.20;47.50;;;;;;5061730;28;20387;-63
2022/07/30 10:19:35;;;;;;;;;;;32.40;47.00;;;;;;5054022;28;20021;-63
2022/07/30 10:22:01;;;;;;;;;;;32.30;46.30;;;;;;5053778;28;20361;-62
2022/07/30 10:24:29;;;;;;;;;;;32.20;46.50;;;;;;5053040;28;19999;-63
2022/07/30 10:26:54;;;;;;;;;;;33.00;46.60;;;;;;5059312;28;19920;-63
2022/07/30 10:29:20;;;;;;;;;;;33.30;41.90;;;;;;5073170;28;19916;-63
2022/07/30 10:31:46;;;;;;;;;;;32.50;43.60;;;;;;5062856;28;20007;-63
2022/07/30 10:34:13;;;;;;;;;;;33.30;43.20;;;;;;5050443;28;19923;-62
2022/07/30 10:36:40;;;;;;;;;;;33.40;44.90;;;;;;5054985;28;19920;-62
2022/07/30 10:39:06;;;;;;;;;;;34.10;43.80;;;;;;5060942;28;20007;-63
2022/07/30 10:41:40;;;;;;;;;;;35.00;43.80;;;;;;5058968;28;19916;-62
2022/07/30 10:44:14;;;;;;;;;;;35.40;43.80;;;;;;5057329;28;19916;-60
2022/07/30 10:46:58;;;;;;;;;;;35.60;42.10;;;;;;5070587;28;19928;-61
2022/07/30 10:49:24;;;;;;;;;;;34.20;41.40;;;;;;5066017;28;19916;-61
2022/07/30 10:51:50;;;;;;;;;;;33.00;43.10;;;;;;5067402;28;19916;-61
2022/07/30 10:54:35;;;;;;;;;;;31.30;44.10;;;;;;5068197;28;19921;-60
2022/07/30 10:57:04;;;;;;;;;;;30.00;45.10;;;;;;5061926;28;19986;-60
2022/07/30 10:59:50;;;;;;;;;;;29.80;46.70;;;;;;5050380;28;19931;-60
2022/07/30 11:02:17;;;;;;;;;;;29.40;46.40;;;;;;5059310;28;20008;-61
2022/07/30 11:04:42;;;;;;;;;;;28.60;45.10;;;;;;5048899;28;20237;-62
2022/07/30 11:07:20;;;;;;;;;;;28.20;47.40;;;;;;5066876;28;19967;-61
2022/07/30 11:09:46;;;;;;;;;;;27.90;48.10;;;;;;5053366;28;19917;-61
2022/07/30 11:12:11;;;;;;;;;;;27.70;49.00;;;;;;5055112;28;20406;-63
2022/07/30 11:14:46;;;;;;;;;;;27.70;49.20;;;;;;5058121;28;20348;-62
2022/07/30 11:17:12;;;;;;;;;;;27.60;49.20;;;;;;5051356;28;20390;-62
2022/07/30 11:19:56;;;;;;;;;;;27.20;50.70;;;;;;5060976;28;19928;-62
2022/07/30 11:22:27;;;;;;;;;;;27.10;50.20;;;;;;5056388;28;19925;-62
2022/07/30 11:24:52;;;;;;;;;;;26.60;50.90;;;;;;5052675;28;19931;-63
2022/07/30 11:27:33;;;;;;;;;;;26.70;52.00;;;;;;5058425;28;19920;-62
2022/07/30 11:29:58;;;;;;;;;;;26.80;52.20;;;;;;5056983;28;19917;-61
2022/07/30 11:32:33;;;;;;;;;;;26.60;51.90;;;;;;5061373;28;19923;-62
2022/07/30 11:35:11;;;;;;;;;;;26.80;52.50;;;;;;5049994;28;19917;-62
2022/07/30 11:37:55;;;;;;;;;;;27.20;52.50;;;;;;5070939;28;20383;-62
2022/07/30 11:40:22;;;;;;;;;;;27.40;51.10;;;;;;5053531;28;19924;-63
2022/07/30 11:42:48;;;;;;;;;;;27.40;50.50;;;;;;5052158;28;19931;-62
2022/07/30 11:45:21;;;;;;;;;;;27.70;51.50;;;;;;5058114;28;19916;-63
2022/07/30 11:47:54;;;;;;;;;;;27.80;50.90;;;;;;5051755;28;19927;-63
2022/07/30 11:50:21;;;;;;;;;;;27.90;50.80;;;;;;5054059;28;20390;-62
2022/07/30 11:52:47;;;;;;;;;;;27.70;50.60;;;;;;5069607;28;19916;-62
2022/07/30 11:55:20;;;;;;;;;;;27.40;50.90;;;;;;5071148;28;19970;-62
2022/07/30 11:57:46;;;;;;;;;;;27.30;50.90;;;;;;5050185;28;19920;-62
2022/07/30 12:00:12;;;;;;;;;;;27.20;51.30;;;;;;5051380;28;19916;-62
2022/07/30 12:02:37;;;;;;;;;;;27.50;51.30;;;;;;5062499;28;19920;-62
2022/07/30 12:05:03;;;;;;;;;;;27.90;51.50;;;;;;5047696;28;20525;-61
2022/07/30 12:07:29;;;;;;;;;;;28.10;50.70;;;;;;5054852;28;19923;-62
2022/07/30 12:10:10;;;;;;;;;;;28.30;48.70;;;;;;5064511;28;19916;-62
2022/07/30 12:12:36;;;;;;;;;;;27.80;48.40;;;;;;5066008;28;19916;-62
2022/07/30 12:15:01;;;;;;;;;;;27.70;48.90;;;;;;5065118;28;19942;-62
2022/07/30 12:17:40;;;;;;;;;;;27.80;48.20;;;;;;5052879;28;19940;-62
2022/07/30 12:20:13;;;;;;;;;;;27.90;47.60;;;;;;5075206;28;20340;-62
2022/07/30 12:22:39;;;;;;;;;;;27.80;47.70;;;;;;5061510;28;20338;-62
2022/07/30 12:25:05;;;;;;;;;;;28.00;47.70;;;;;;5051596;28;19920;-62
2022/07/30 12:27:31;;;;;;;;;;;28.10;46.00;;;;;;5054634;28;19916;-62
2022/07/30 12:29:56;;;;;;;;;;;27.80;46.50;;;;;;5062468;28;19916;-62
2022/07/30 12:32:22;;;;;;;;;;;27.10;47.80;;;;;;5059238;28;20417;-61
2022/07/30 12:34:56;;;;;;;;;;;27.10;48.70;;;;;;5051465;28;20514;-62
2022/07/30 12:37:22;;;;;;;;;;;27.10;49.40;;;;;;5069029;28;19927;-63
2022/07/30 12:39:48;;;;;;;;;;;28.00;48.70;;;;;;5056093;28;19928;-62
2022/07/30 12:42:20;;;;;;;;;;;28.40;48.70;;;;;;5055077;28;19917;-62
2022/07/30 12:44:48;;;;;;;;;;;28.90;48.40;;;;;;5055218;28;19959;-62
2022/07/30 12:47:25;;;;;;;;;;;29.60;47.70;;;;;;5054974;28;19927;-61
2022/07/30 12:49:51;;;;;;;;;;;29.70;44.40;;;;;;5051845;28;19917;-62
2022/07/30 12:52:24;;;;;;;;;;;29.60;46.10;;;;;;5057411;28;19942;-62
2022/07/30 12:54:56;;;;;;;;;;;31.50;45.90;;;;;;5053964;28;19921;-62
2022/07/30 12:57:21;;;;;;;;;;;33.20;40.60;;;;;;5053441;28;19928;-62
2022/07/30 12:59:59;;;;;;;;;;;34.50;39.10;;;;;;5065467;28;19916;-61
2022/07/30 13:02:31;;;;;;;;;;;34.40;37.00;;;;;;5057171;28;20316;-62
2022/07/30 13:04:56;;;;;;;;;;;34.70;35.00;;;;;;5064563;28;20268;-62
2022/07/30 13:07:22;;;;;;;;;;;35.60;36.20;;;;;;5065610;28;19917;-63
2022/07/30 13:10:04;;;;;;;;;;;36.30;36.70;;;;;;5060906;28;20041;-62
2022/07/30 13:12:29;;;;;;;;;;;36.80;35.40;;;;;;5054972;28;19925;-64
2022/07/30 13:14:55;;;;;;;;;;;37.10;32.70;;;;;;5051509;28;19917;-64
2022/07/30 13:17:21;;;;;;;;;;;37.10;34.30;;;;;;5060381;28;19920;-62
2022/07/30 13:19:46;;;;;;;;;;;35.00;33.10;;;;;;5057756;28;19924;-63
2022/07/30 13:22:12;;;;;;;;;;;36.00;35.80;;;;;;5059450;28;19917;-63
2022/07/30 13:24:38;;;;;;;;;;;37.00;33.60;;;;;;5058114;28;20399;-63
2022/07/30 13:27:03;;;;;;;;;;;37.40;34.60;;;;;;5067225;28;20010;-62
2022/07/30 13:29:29;;;;;;;;;;;37.80;34.20;;;;;;5068111;28;19916;-63
2022/07/30 13:31:55;;;;;;;;;;;37.90;31.10;;;;;;5075149;28;19923;-63
2022/07/30 13:34:20;;;;;;;;;;;36.80;32.00;;;;;;5061582;28;19920;-63
2022/07/30 13:36:46;;;;;;;;;;;37.10;32.40;;;;;;5059742;28;19928;-62
2022/07/30 13:39:11;;;;;;;;;;;36.70;31.60;;;;;;5054244;28;19916;-62
2022/07/30 13:41:37;;;;;;;;;;;35.90;32.50;;;;;;5051664;28;20007;-63
2022/07/30 13:44:03;;;;;;;;;;;35.40;32.40;;;;;;5065099;28;19931;-62
2022/07/30 13:46:28;;;;;;;;;;;35.50;32.80;;;;;;5055117;28;19920;-63
2022/07/30 13:48:54;;;;;;;;;;;36.00;34.40;;;;;;5047847;28;20241;-62
2022/07/30 13:51:19;;;;;;;;;;;35.80;34.10;;;;;;5054530;28;19943;-62
2022/07/30 13:53:45;;;;;;;;;;;35.20;33.40;;;;;;5056523;28;19916;-62
2022/07/30 13:56:10;;;;;;;;;;;35.20;34.10;;;;;;5051651;28;20639;-63
2022/07/30 13:58:36;;;;;;;;;;;34.40;32.80;;;;;;5060783;28;19920;-62
2022/07/30 14:01:01;;;;;;;;;;;34.70;34.80;;;;;;5067013;28;19921;-62
2022/07/30 14:03:27;;;;;;;;;;;34.90;34.20;;;;;;5061355;28;19943;-62
2022/07/30 14:05:52;;;;;;;;;;;34.90;33.50;;;;;;5061388;28;20487;-62
2022/07/30 14:08:17;;;;;;;;;;;34.90;33.20;;;;;;5062737;28;19916;-63
2022/07/30 14:10:43;;;;;;;;;;;35.40;33.70;;;;;;5064549;28;19917;-62
2022/07/30 14:13:09;;;;;;;;;;;35.00;32.50;;;;;;5062838;28;20315;-62
2022/07/30 14:15:34;;;;;;;;;;;34.40;33.30;;;;;;5058362;28;19921;-62
2022/07/30 14:18:00;;;;;;;;;;;33.90;34.20;;;;;;5052753;28;19925;-62